createdAt,value
2023-02-09T00:01:29.690Z,3.90
2023-02-09T00:03:57.992Z,3.90
2023-02-09T00:06:26.352Z,4.10
2023-02-09T00:08:53.602Z,4.00
2023-02-09T00:11:44.471Z,4.20
2023-02-09T00:14:13.665Z,4.00
2023-02-09T00:16:41.294Z,4.10
2023-02-09T00:19:08.142Z,3.60
2023-02-09T00:21:35.067Z,3.40
2023-02-09T00:24:01.903Z,3.40
2023-02-09T00:26:28.697Z,3.10
2023-02-09T00:28:55.507Z,3.60
2023-02-09T00:31:22.454Z,3.70
2023-02-09T00:33:49.265Z,3.40
2023-02-09T00:36:16.868Z,3.10
2023-02-09T00:38:44.443Z,3.20
2023-02-09T00:41:13.482Z,3.00
2023-02-09T00:43:41.215Z,2.80
2023-02-09T00:46:08.801Z,2.80
2023-02-09T00:48:36.059Z,2.80
2023-02-09T00:51:02.989Z,3.00
2023-02-09T00:53:29.803Z,3.20
2023-02-09T00:55:56.573Z,3.20
2023-02-09T00:58:23.382Z,2.80
2023-02-09T01:00:50.368Z,2.80
2023-02-09T01:03:17.243Z,3.10
2023-02-09T01:05:44.057Z,3.30
2023-02-09T01:08:11.290Z,2.90
2023-02-09T01:10:38.684Z,2.60
2023-02-09T01:13:05.783Z,3.00
2023-02-09T01:15:32.720Z,2.90
2023-02-09T01:17:59.965Z,2.90
2023-02-09T01:20:27.435Z,2.90
2023-02-09T01:22:54.222Z,2.70
2023-02-09T01:25:21.255Z,2.30
2023-02-09T01:27:48.078Z,2.30
2023-02-09T01:30:15.667Z,2.20
2023-02-09T01:32:42.788Z,2.50
2023-02-09T01:35:10.218Z,2.60
2023-02-09T01:37:36.995Z,2.30
2023-02-09T01:40:05.400Z,2.00
2023-02-09T01:42:32.873Z,1.80
2023-02-09T01:45:23.824Z,2.30
2023-02-09T01:48:01.809Z,2.10
2023-02-09T01:50:34.701Z,2.20
2023-02-09T01:53:02.848Z,2.10
2023-02-09T01:55:33.086Z,2.10
2023-02-09T01:58:15.241Z,2.20
2023-02-09T02:00:42.833Z,1.80
2023-02-09T02:03:15.882Z,1.80
2023-02-09T02:05:47.194Z,1.70
2023-02-09T02:08:45.790Z,1.50
2023-02-09T02:11:13.491Z,1.70
2023-02-09T02:13:40.302Z,1.80
2023-02-09T02:16:17.840Z,1.90
2023-02-09T02:19:37.838Z,2.10
2023-02-09T02:22:50.295Z,2.40
2023-02-09T02:25:46.981Z,1.70
2023-02-09T02:28:44.942Z,1.80
2023-02-09T02:31:48.988Z,1.60
2023-02-09T02:34:46.608Z,1.70
2023-02-09T02:37:41.006Z,2.20
2023-02-09T02:40:33.253Z,2.50
2023-02-09T02:43:18.111Z,2.70
2023-02-09T02:45:59.085Z,2.70
2023-02-09T02:48:37.161Z,2.70
2023-02-09T02:51:12.938Z,2.80
2023-02-09T02:53:43.796Z,2.80
2023-02-09T02:56:21.589Z,2.90
2023-02-09T02:58:51.228Z,2.70
2023-02-09T03:01:23.951Z,2.40
2023-02-09T03:03:53.685Z,2.40
2023-02-09T03:06:20.542Z,2.50
2023-02-09T03:08:53.318Z,3.10
2023-02-09T03:11:23.919Z,2.90
2023-02-09T03:14:12.991Z,2.30
2023-02-09T03:17:03.018Z,2.10
2023-02-09T03:19:58.283Z,1.70
2023-02-09T03:22:48.338Z,1.70
2023-02-09T03:25:42.117Z,2.00
2023-02-09T03:28:36.439Z,2.10
2023-02-09T03:31:04.655Z,2.10
2023-02-09T03:33:34.671Z,2.10
2023-02-09T03:36:03.766Z,2.00
2023-02-09T03:38:30.554Z,1.70
2023-02-09T03:40:57.337Z,2.00
2023-02-09T03:43:46.826Z,2.20
2023-02-09T03:46:13.680Z,1.80
2023-02-09T03:48:40.576Z,1.50
2023-02-09T03:51:07.397Z,1.60
2023-02-09T03:53:37.711Z,1.50
2023-02-09T03:56:07.848Z,2.10
2023-02-09T03:58:36.160Z,2.30
2023-02-09T04:01:09.384Z,1.80
2023-02-09T04:03:37.753Z,2.20
2023-02-09T04:06:04.999Z,2.30
2023-02-09T04:08:33.660Z,2.20
2023-02-09T04:11:00.623Z,1.80
2023-02-09T04:13:27.450Z,1.70
2023-02-09T04:15:54.439Z,1.70
2023-02-09T04:18:21.444Z,1.80
2023-02-09T04:20:48.325Z,1.90
2023-02-09T04:23:16.498Z,1.70
2023-02-09T04:25:43.531Z,1.30
2023-02-09T04:28:10.513Z,1.60
2023-02-09T04:30:37.312Z,1.50
2023-02-09T04:33:04.322Z,1.80
2023-02-09T04:35:31.080Z,1.40
2023-02-09T04:37:57.861Z,1.50
2023-02-09T04:40:24.672Z,1.60
2023-02-09T04:42:51.467Z,1.80
2023-02-09T04:45:18.521Z,2.20
2023-02-09T04:47:45.307Z,1.90
2023-02-09T04:50:12.156Z,1.70
2023-02-09T04:52:38.934Z,1.70
2023-02-09T04:55:06.025Z,2.00
2023-02-09T04:57:51.426Z,2.30
2023-02-09T05:00:18.475Z,1.80
2023-02-09T05:02:45.256Z,1.60
2023-02-09T05:05:12.056Z,1.50
2023-02-09T05:07:38.809Z,1.40
2023-02-09T05:10:06.177Z,0.90
2023-02-09T05:12:32.955Z,0.80
2023-02-09T05:14:59.741Z,1.10
2023-02-09T05:17:26.540Z,1.40
2023-02-09T05:19:53.297Z,1.70
2023-02-09T05:22:20.128Z,1.50
2023-02-09T05:24:46.924Z,1.70
2023-02-09T05:27:13.688Z,1.50
2023-02-09T05:29:40.457Z,1.40
2023-02-09T05:32:07.262Z,1.60
2023-02-09T05:34:34.068Z,2.00
2023-02-09T05:37:00.871Z,1.80
2023-02-09T05:39:27.753Z,1.60
2023-02-09T05:42:12.919Z,2.20
2023-02-09T05:44:39.806Z,2.20
2023-02-09T05:47:06.680Z,2.10
2023-02-09T05:49:33.921Z,2.00
2023-02-09T05:52:01.154Z,1.90
2023-02-09T05:54:27.992Z,1.70
2023-02-09T05:56:54.918Z,1.90
2023-02-09T05:59:21.684Z,1.80
2023-02-09T06:01:48.421Z,1.50
2023-02-09T06:04:15.384Z,1.40
2023-02-09T06:06:42.853Z,1.60
2023-02-09T06:09:09.886Z,1.70
2023-02-09T06:11:36.890Z,1.40
2023-02-09T06:14:03.872Z,1.80
2023-02-09T06:16:30.826Z,1.50
2023-02-09T06:18:57.588Z,1.40
2023-02-09T06:21:24.414Z,1.40
2023-02-09T06:23:51.193Z,1.40
2023-02-09T06:26:19.024Z,1.60
2023-02-09T06:28:46.470Z,1.90
2023-02-09T06:31:13.740Z,1.70
2023-02-09T06:33:41.007Z,1.50
2023-02-09T06:36:08.844Z,1.60
2023-02-09T06:38:37.250Z,1.40
2023-02-09T06:41:05.687Z,1.30
2023-02-09T06:43:32.781Z,1.40
2023-02-09T06:46:08.293Z,1.00
2023-02-09T06:48:36.508Z,1.30
2023-02-09T06:51:12.149Z,1.10
2023-02-09T06:53:40.496Z,1.40
2023-02-09T06:56:07.607Z,1.70
2023-02-09T06:58:35.929Z,1.10
2023-02-09T07:01:11.651Z,0.90
2023-02-09T07:03:38.864Z,1.10
2023-02-09T07:06:11.060Z,1.10
2023-02-09T07:08:37.940Z,1.00
2023-02-09T07:11:09.722Z,1.10
2023-02-09T07:13:36.946Z,1.50
2023-02-09T07:16:06.810Z,1.70
2023-02-09T07:18:34.774Z,1.30
2023-02-09T07:21:12.437Z,1.50
2023-02-09T07:23:39.283Z,1.50
2023-02-09T07:26:10.813Z,1.90
2023-02-09T07:28:37.694Z,1.90
2023-02-09T07:31:08.036Z,1.80
2023-02-09T07:33:35.952Z,2.00
2023-02-09T07:36:09.529Z,2.10
2023-02-09T07:38:37.449Z,2.30
2023-02-09T07:41:06.443Z,2.40
2023-02-09T07:43:34.090Z,2.60
2023-02-09T07:46:04.427Z,2.60
2023-02-09T07:48:32.097Z,2.70
2023-02-09T07:50:59.445Z,2.80
2023-02-09T07:53:26.883Z,2.50
2023-02-09T07:55:53.916Z,2.70
2023-02-09T07:58:21.935Z,2.80
2023-02-09T08:00:50.881Z,2.60
2023-02-09T08:03:22.213Z,2.70
2023-02-09T08:05:58.637Z,2.60
2023-02-09T08:08:25.563Z,2.30
2023-02-09T08:10:54.953Z,2.60
2023-02-09T08:13:22.905Z,2.90
2023-02-09T08:15:56.055Z,3.10
2023-02-09T08:18:43.000Z,3.80
2023-02-09T08:21:13.846Z,4.40
2023-02-09T08:23:42.400Z,4.80
2023-02-09T08:26:12.324Z,4.90
2023-02-09T08:28:47.035Z,4.70
2023-02-09T08:31:20.307Z,4.40
2023-02-09T08:33:49.231Z,4.20
2023-02-09T08:36:18.829Z,4.10
2023-02-09T08:38:47.969Z,4.20
2023-02-09T08:41:16.510Z,4.20
2023-02-09T08:43:51.504Z,3.40
2023-02-09T08:46:19.504Z,3.20
2023-02-09T08:48:47.598Z,2.90
2023-02-09T08:51:16.283Z,3.30
2023-02-09T08:53:43.989Z,3.60
2023-02-09T08:56:10.855Z,3.20
2023-02-09T08:58:37.631Z,3.10
2023-02-09T09:01:05.519Z,3.10
2023-02-09T09:03:32.851Z,3.10
2023-02-09T09:06:05.828Z,3.40
2023-02-09T09:08:34.641Z,3.60
2023-02-09T09:11:02.238Z,3.90
2023-02-09T09:13:29.646Z,4.10
2023-02-09T09:15:56.655Z,4.00
2023-02-09T09:18:25.819Z,4.00
2023-02-09T09:20:56.089Z,3.70
2023-02-09T09:23:23.121Z,3.80
2023-02-09T09:25:50.280Z,3.80
2023-02-09T09:28:17.129Z,4.10
2023-02-09T09:30:44.101Z,4.50
2023-02-09T09:33:10.978Z,4.70
2023-02-09T09:35:37.851Z,4.30
2023-02-09T09:38:04.718Z,4.20
2023-02-09T09:40:35.429Z,4.30
2023-02-09T09:43:17.221Z,4.50
2023-02-09T09:45:47.060Z,4.70
2023-02-09T09:48:26.426Z,4.80
2023-02-09T09:50:59.166Z,4.90
2023-02-09T09:53:36.975Z,4.90
2023-02-09T09:56:08.257Z,5.00
2023-02-09T09:58:39.787Z,5.00
2023-02-09T10:01:14.350Z,4.90
2023-02-09T10:03:41.816Z,5.00
2023-02-09T10:06:18.461Z,4.90
2023-02-09T10:08:59.948Z,4.80
2023-02-09T10:11:56.279Z,5.00
2023-02-09T10:14:23.794Z,4.80
2023-02-09T10:16:50.726Z,5.00
2023-02-09T10:19:26.579Z,5.50
2023-02-09T10:21:54.621Z,5.40
2023-02-09T10:24:28.932Z,5.90
2023-02-09T10:27:28.551Z,6.10
2023-02-09T10:29:56.777Z,6.20
2023-02-09T10:32:39.472Z,6.30
2023-02-09T10:35:29.749Z,6.60
2023-02-09T10:38:02.359Z,6.00
2023-02-09T10:40:32.726Z,6.10
2023-02-09T10:43:02.658Z,6.00
2023-02-09T10:45:45.168Z,6.40
2023-02-09T10:48:11.975Z,6.20
2023-02-09T10:51:02.923Z,6.20
2023-02-09T10:53:38.186Z,6.10
2023-02-09T10:56:19.840Z,5.70
2023-02-09T10:58:52.505Z,5.80
2023-02-09T11:01:24.879Z,5.20
2023-02-09T11:04:05.809Z,5.60
2023-02-09T11:06:50.483Z,5.80
2023-02-09T11:09:21.175Z,7.20
2023-02-09T11:11:47.916Z,5.70
2023-02-09T11:14:18.284Z,6.80
2023-02-09T11:17:10.463Z,7.00
2023-02-09T11:20:04.190Z,7.30
2023-02-09T11:22:51.132Z,6.60
2023-02-09T11:25:29.630Z,6.30
2023-02-09T11:28:09.174Z,6.50
2023-02-09T11:31:16.405Z,6.10
2023-02-09T11:33:56.098Z,6.40
2023-02-09T11:36:34.536Z,6.50
2023-02-09T11:39:08.665Z,7.00
2023-02-09T11:42:00.285Z,8.40
2023-02-09T11:44:35.517Z,8.30
2023-02-09T11:47:07.674Z,7.70
2023-02-09T11:49:53.794Z,6.90
2023-02-09T11:52:49.171Z,7.20
2023-02-09T11:55:42.766Z,7.00
2023-02-09T11:58:58.994Z,7.80
2023-02-09T12:02:07.393Z,8.00
2023-02-09T12:04:58.663Z,6.90
2023-02-09T12:08:00.139Z,7.70
2023-02-09T12:10:55.074Z,6.70
2023-02-09T12:13:52.852Z,7.70
2023-02-09T12:16:35.847Z,6.50
2023-02-09T12:19:04.304Z,6.30
2023-02-09T12:21:38.198Z,6.10
2023-02-09T12:24:30.531Z,5.50
2023-02-09T12:26:57.995Z,5.60
2023-02-09T12:29:39.256Z,6.00
2023-02-09T12:32:08.588Z,6.30
2023-02-09T12:34:35.326Z,6.80
2023-02-09T12:37:27.650Z,6.10
2023-02-09T12:40:18.288Z,5.70
2023-02-09T12:42:52.394Z,6.00
2023-02-09T12:45:44.698Z,6.40
2023-02-09T12:48:19.097Z,5.80
2023-02-09T12:50:53.479Z,5.90
2023-02-09T12:53:23.605Z,6.20
2023-02-09T12:56:29.561Z,6.90
2023-02-09T12:59:13.371Z,6.70
2023-02-09T13:02:08.051Z,7.40
2023-02-09T13:04:50.001Z,7.20
2023-02-09T13:07:34.151Z,7.60
2023-02-09T13:10:18.498Z,8.30
2023-02-09T13:12:59.951Z,8.00
2023-02-09T13:15:33.810Z,8.40
2023-02-09T13:18:20.017Z,8.50
2023-02-09T13:21:04.492Z,9.10
2023-02-09T13:24:03.857Z,9.20
2023-02-09T13:26:36.398Z,8.90
2023-02-09T13:29:21.239Z,8.80
2023-02-09T13:32:01.007Z,9.70
2023-02-09T13:34:47.539Z,9.70
2023-02-09T13:37:31.759Z,9.60
2023-02-09T13:40:20.890Z,9.00
2023-02-09T13:43:10.891Z,8.80
2023-02-09T13:45:53.899Z,8.20
2023-02-09T13:48:30.047Z,8.50
2023-02-09T13:51:00.836Z,8.30
2023-02-09T13:53:30.235Z,9.00
2023-02-09T13:56:00.360Z,9.20
2023-02-09T13:58:37.144Z,9.30
2023-02-09T14:01:13.386Z,9.20
2023-02-09T14:03:58.886Z,9.70
2023-02-09T14:06:30.551Z,10.00
2023-02-09T14:08:59.453Z,9.40
2023-02-09T14:12:09.802Z,9.30
2023-02-09T14:15:01.422Z,9.30
2023-02-09T14:17:34.837Z,8.50
2023-02-09T14:20:01.874Z,9.60
2023-02-09T14:22:39.879Z,8.80
2023-02-09T14:25:23.605Z,8.90
2023-02-09T14:27:50.689Z,8.70
2023-02-09T14:30:25.740Z,8.90
2023-02-09T14:32:58.241Z,9.10
2023-02-09T14:35:29.988Z,8.50
2023-02-09T14:38:01.097Z,9.10
2023-02-09T14:40:28.207Z,8.70
2023-02-09T14:43:00.786Z,8.70
2023-02-09T14:45:57.106Z,8.90
2023-02-09T14:48:27.487Z,9.20
2023-02-09T14:50:57.909Z,9.60
2023-02-09T14:53:29.367Z,10.40
2023-02-09T14:55:58.026Z,10.20
2023-02-09T14:58:27.820Z,10.70
2023-02-09T15:00:58.333Z,10.70
2023-02-09T15:03:25.267Z,10.40
2023-02-09T15:05:57.761Z,10.40
2023-02-09T15:08:28.181Z,9.70
2023-02-09T15:11:01.466Z,10.10
2023-02-09T15:13:30.508Z,10.30
2023-02-09T15:15:57.385Z,10.50
2023-02-09T15:18:26.851Z,10.90
2023-02-09T15:20:53.939Z,10.40
2023-02-09T15:23:20.778Z,10.50
2023-02-09T15:25:48.132Z,11.00
2023-02-09T15:28:27.891Z,10.60
2023-02-09T15:30:56.242Z,10.30
2023-02-09T15:33:23.358Z,10.30
2023-02-09T15:35:50.274Z,10.20
2023-02-09T15:38:18.362Z,10.20
2023-02-09T15:41:07.179Z,9.60
2023-02-09T15:43:52.770Z,9.20
2023-02-09T15:46:39.107Z,9.20
2023-02-09T15:49:07.258Z,9.20
2023-02-09T15:51:38.230Z,9.30
2023-02-09T15:54:19.369Z,8.90
2023-02-09T15:56:46.840Z,8.80
2023-02-09T15:59:21.545Z,9.00
2023-02-09T16:01:49.408Z,8.90
2023-02-09T16:04:16.259Z,8.80
2023-02-09T16:06:52.718Z,8.60
2023-02-09T16:09:29.326Z,8.60
2023-02-09T16:11:56.557Z,9.00
2023-02-09T16:14:26.339Z,9.20
2023-02-09T16:16:53.730Z,9.30
2023-02-09T16:19:21.536Z,9.30
2023-02-09T16:21:56.475Z,9.20
2023-02-09T16:24:51.751Z,9.30
2023-02-09T16:27:30.370Z,9.00
2023-02-09T16:29:58.710Z,8.70
2023-02-09T16:32:28.376Z,8.90
2023-02-09T16:35:04.547Z,8.40
2023-02-09T16:37:37.906Z,8.20
2023-02-09T16:40:19.160Z,8.50
2023-02-09T16:42:47.743Z,8.30
2023-02-09T16:45:17.340Z,7.90
2023-02-09T16:47:50.242Z,8.10
2023-02-09T16:50:27.779Z,8.00
2023-02-09T16:52:56.331Z,7.80
2023-02-09T16:55:36.589Z,7.00
2023-02-09T16:58:05.236Z,6.80
2023-02-09T17:00:37.621Z,6.60
2023-02-09T17:03:17.010Z,6.50
2023-02-09T17:05:48.414Z,6.30
2023-02-09T17:08:34.624Z,6.10
2023-02-09T17:11:03.823Z,6.20
2023-02-09T17:13:31.361Z,6.10
2023-02-09T17:16:02.911Z,6.30
2023-02-09T17:18:39.187Z,6.30
2023-02-09T17:21:31.419Z,5.90
2023-02-09T17:23:58.628Z,6.10
2023-02-09T17:26:25.917Z,6.20
2023-02-09T17:28:52.786Z,6.10
2023-02-09T17:31:28.953Z,5.90
2023-02-09T17:34:02.220Z,5.60
2023-02-09T17:36:30.181Z,6.00
2023-02-09T17:38:59.411Z,6.20
2023-02-09T17:41:42.547Z,5.90
2023-02-09T17:44:34.811Z,5.50
2023-02-09T17:47:06.304Z,5.60
2023-02-09T17:49:34.187Z,5.80
2023-02-09T17:52:01.023Z,5.70
2023-02-09T17:54:27.857Z,5.60
2023-02-09T17:56:54.670Z,5.40
2023-02-09T17:59:21.642Z,5.50
2023-02-09T18:01:55.075Z,5.60
2023-02-09T18:04:26.759Z,5.10
2023-02-09T18:06:54.330Z,5.30
2023-02-09T18:09:21.872Z,4.90
2023-02-09T18:11:51.993Z,5.10
2023-02-09T18:14:22.134Z,4.80
2023-02-09T18:16:50.269Z,4.80
2023-02-09T18:19:17.397Z,4.90
2023-02-09T18:21:57.757Z,4.80
2023-02-09T18:24:29.345Z,4.70
2023-02-09T18:26:56.218Z,4.70
2023-02-09T18:29:28.918Z,4.70
2023-02-09T18:32:00.893Z,4.60
2023-02-09T18:34:28.315Z,4.40
2023-02-09T18:36:55.172Z,4.40
2023-02-09T18:39:22.204Z,4.50
2023-02-09T18:41:54.221Z,4.50
2023-02-09T18:44:29.143Z,4.40
2023-02-09T18:46:57.445Z,4.50
2023-02-09T18:49:24.243Z,4.50
2023-02-09T18:51:52.090Z,4.60
2023-02-09T18:54:19.432Z,4.80
2023-02-09T18:56:46.278Z,5.10
2023-02-09T18:59:13.221Z,5.30
2023-02-09T19:01:40.947Z,4.90
2023-02-09T19:04:08.340Z,4.80
2023-02-09T19:06:35.555Z,4.70
2023-02-09T19:09:02.471Z,4.50
2023-02-09T19:11:29.237Z,4.50
2023-02-09T19:14:14.852Z,4.50
2023-02-09T19:16:41.637Z,4.40
2023-02-09T19:19:09.363Z,4.30
2023-02-09T19:21:36.472Z,4.80
2023-02-09T19:24:04.065Z,5.00
2023-02-09T19:26:30.936Z,5.20
2023-02-09T19:28:57.858Z,5.30
2023-02-09T19:31:25.065Z,5.40
2023-02-09T19:33:56.457Z,5.40
2023-02-09T19:36:24.337Z,5.20
2023-02-09T19:38:51.194Z,5.00
2023-02-09T19:41:18.253Z,4.70
2023-02-09T19:43:45.014Z,5.00
2023-02-09T19:46:11.853Z,4.50
2023-02-09T19:48:42.060Z,3.70
2023-02-09T19:51:09.158Z,4.50
2023-02-09T19:53:36.410Z,4.70
2023-02-09T19:56:03.287Z,4.70
2023-02-09T19:58:30.209Z,4.70
2023-02-09T20:00:57.178Z,4.60
2023-02-09T20:03:25.034Z,4.50
2023-02-09T20:05:51.932Z,4.70
2023-02-09T20:08:19.846Z,4.80
2023-02-09T20:10:47.299Z,5.20
2023-02-09T20:13:15.330Z,5.40
2023-02-09T20:15:43.726Z,5.20
2023-02-09T20:18:12.167Z,4.90
2023-02-09T20:20:41.609Z,4.80
2023-02-09T20:23:09.289Z,4.80
2023-02-09T20:25:36.092Z,4.80
2023-02-09T20:28:02.998Z,5.10
2023-02-09T20:30:29.864Z,5.00
2023-02-09T20:32:56.724Z,4.90
2023-02-09T20:35:23.556Z,5.00
2023-02-09T20:37:52.724Z,4.90
2023-02-09T20:40:19.836Z,4.80
2023-02-09T20:43:04.974Z,4.60
2023-02-09T20:45:50.043Z,4.50
2023-02-09T20:48:17.393Z,4.20
2023-02-09T20:50:45.234Z,3.90
2023-02-09T20:53:12.746Z,3.90
2023-02-09T20:55:39.501Z,3.90
2023-02-09T20:58:06.578Z,3.70
2023-02-09T21:00:33.442Z,3.90
2023-02-09T21:03:00.250Z,3.90
2023-02-09T21:05:27.084Z,3.80
2023-02-09T21:07:54.262Z,3.80
2023-02-09T21:10:21.737Z,3.80
2023-02-09T21:12:48.478Z,3.90
2023-02-09T21:15:15.550Z,4.00
2023-02-09T21:17:47.658Z,4.40
2023-02-09T21:20:16.128Z,4.70
2023-02-09T21:22:42.990Z,4.40
2023-02-09T21:25:10.099Z,3.90
2023-02-09T21:27:37.198Z,3.80
2023-02-09T21:30:05.067Z,3.90
2023-02-09T21:32:34.877Z,4.10
2023-02-09T21:35:01.727Z,4.10
2023-02-09T21:37:32.068Z,4.10
2023-02-09T21:40:02.851Z,4.20
2023-02-09T21:42:31.151Z,4.40
2023-02-09T21:44:59.430Z,4.40
2023-02-09T21:47:31.447Z,4.40
2023-02-09T21:49:59.000Z,4.40
2023-02-09T21:52:26.492Z,4.30
2023-02-09T21:54:53.854Z,4.20
2023-02-09T21:57:21.640Z,4.10
2023-02-09T21:59:48.695Z,4.60
2023-02-09T22:02:17.907Z,4.40
2023-02-09T22:04:46.658Z,4.50
2023-02-09T22:07:14.629Z,4.80
2023-02-09T22:09:41.576Z,4.80
2023-02-09T22:12:08.614Z,4.90
2023-02-09T22:14:35.584Z,4.80
2023-02-09T22:17:02.546Z,4.90
2023-02-09T22:19:29.386Z,4.90
2023-02-09T22:21:59.038Z,5.00
2023-02-09T22:24:26.069Z,5.20
2023-02-09T22:26:52.955Z,5.00
2023-02-09T22:29:20.018Z,4.80
2023-02-09T22:31:47.436Z,4.90
2023-02-09T22:34:14.255Z,4.70
2023-02-09T22:36:41.082Z,4.60
2023-02-09T22:39:08.163Z,4.40
2023-02-09T22:41:35.151Z,4.40
2023-02-09T22:44:08.376Z,4.40
2023-02-09T22:46:39.395Z,4.20
2023-02-09T22:49:13.398Z,3.80
2023-02-09T22:51:40.192Z,3.40
2023-02-09T22:54:07.012Z,3.10
2023-02-09T22:56:34.046Z,3.30
2023-02-09T22:59:01.518Z,3.70
2023-02-09T23:01:29.366Z,3.80
2023-02-09T23:03:57.001Z,3.80
2023-02-09T23:06:27.270Z,3.80
2023-02-09T23:09:05.123Z,3.90
2023-02-09T23:11:32.133Z,4.30
2023-02-09T23:14:09.202Z,4.30
2023-02-09T23:16:38.268Z,4.40
2023-02-09T23:19:08.227Z,4.00
2023-02-09T23:21:39.533Z,3.90
2023-02-09T23:24:07.149Z,3.80
2023-02-09T23:26:34.119Z,3.80
2023-02-09T23:29:04.824Z,3.70
2023-02-09T23:31:31.887Z,3.70
2023-02-09T23:33:58.780Z,3.80
2023-02-09T23:36:29.146Z,3.70
2023-02-09T23:39:02.317Z,3.50
2023-02-09T23:41:30.080Z,3.30
2023-02-09T23:43:57.654Z,3.30
2023-02-09T23:46:28.701Z,3.20
2023-02-09T23:48:56.337Z,3.20
2023-02-09T23:51:28.311Z,3.20
2023-02-09T23:53:57.378Z,3.00
2023-02-09T23:56:24.455Z,3.10
2023-02-09T23:58:53.391Z,3.30
